createdAt,value
2022-12-28T00:03:22.600Z,101099.31
2022-12-28T00:08:23.302Z,101103.44
2022-12-28T00:13:25.282Z,101107.47
2022-12-28T00:18:26.161Z,101112.56
2022-12-28T00:23:27.952Z,101107.50
2022-12-28T00:28:29.997Z,101111.09
2022-12-28T00:33:31.304Z,101094.59
2022-12-28T00:38:32.941Z,101087.41
2022-12-28T00:43:35.283Z,101097.06
2022-12-28T00:48:35.946Z,101097.41
2022-12-28T00:53:36.710Z,101083.75
2022-12-28T00:58:39.172Z,101083.03
2022-12-28T01:03:39.999Z,101081.59
2022-12-28T01:08:41.761Z,101081.53
2022-12-28T01:13:43.853Z,101076.34
2022-12-28T01:18:45.681Z,101065.84
2022-12-28T01:23:47.441Z,101069.75
2022-12-28T01:28:49.504Z,101061.13
2022-12-28T01:33:50.462Z,101054.00
2022-12-28T01:38:54.466Z,101033.19
2022-12-28T01:44:32.481Z,101040.81
2022-12-28T01:49:38.255Z,101034.00
2022-12-28T01:54:43.640Z,101030.47
2022-12-28T01:59:51.524Z,101025.19
2022-12-28T02:04:55.027Z,101025.81
2022-12-28T02:10:44.692Z,101011.22
2022-12-28T02:15:22.911Z,100998.91
2022-12-28T02:20:32.717Z,100981.50
2022-12-28T02:25:57.873Z,100974.59
2022-12-28T02:31:07.152Z,100957.53
2022-12-28T02:36:18.174Z,100959.38
2022-12-28T02:41:22.413Z,100950.66
2022-12-28T02:46:44.948Z,100938.69
2022-12-28T02:52:00.101Z,100915.56
2022-12-28T02:57:09.322Z,100917.22
2022-12-28T03:02:26.103Z,100904.41
2022-12-28T03:07:50.697Z,100890.91
2022-12-28T03:12:57.856Z,100879.81
2022-12-28T03:18:24.615Z,100882.50
2022-12-28T03:23:45.032Z,100871.47
2022-12-28T03:29:05.305Z,100853.38
2022-12-28T03:34:11.982Z,100859.56
2022-12-28T03:39:23.620Z,100832.09
2022-12-28T03:44:32.938Z,100827.84
2022-12-28T03:49:35.448Z,100817.72
2022-12-28T03:54:36.768Z,100809.28
2022-12-28T03:59:37.727Z,100795.63
2022-12-28T04:04:41.308Z,100803.41
2022-12-28T04:09:42.050Z,100789.34
2022-12-28T04:14:44.702Z,100780.94
2022-12-28T04:19:47.581Z,100777.50
2022-12-28T04:24:48.839Z,100768.81
2022-12-28T04:29:49.923Z,100752.63
2022-12-28T04:34:54.591Z,100750.94
2022-12-28T04:39:57.395Z,100750.25
2022-12-28T04:44:58.292Z,100758.13
2022-12-28T04:50:00.367Z,100754.75
2022-12-28T04:55:01.077Z,100738.47
2022-12-28T05:00:01.708Z,100731.84
2022-12-28T05:05:03.890Z,100717.34
2022-12-28T05:10:05.053Z,100708.88
2022-12-28T05:15:07.154Z,100728.75
2022-12-28T05:20:10.319Z,100720.00
2022-12-28T05:25:11.043Z,100706.88
2022-12-28T05:30:12.521Z,100701.09
2022-12-28T05:35:14.533Z,100674.13
2022-12-28T05:40:15.233Z,100676.38
2022-12-28T05:45:15.974Z,100681.38
2022-12-28T05:50:18.240Z,100676.09
2022-12-28T05:55:19.150Z,100687.25
2022-12-28T06:00:19.908Z,100682.09
2022-12-28T06:05:21.894Z,100685.69
2022-12-28T06:10:22.541Z,100683.97
2022-12-28T06:15:23.173Z,100666.91
2022-12-28T06:20:25.126Z,100655.72
2022-12-28T06:25:25.776Z,100648.09
2022-12-28T06:30:26.487Z,100648.16
2022-12-28T06:35:28.474Z,100643.94
2022-12-28T06:41:02.453Z,100644.78
2022-12-28T06:45:57.357Z,100643.09
2022-12-28T06:51:00.763Z,100625.13
2022-12-28T06:56:03.675Z,100627.84
2022-12-28T07:01:08.368Z,100620.22
2022-12-28T07:06:11.376Z,100633.97
2022-12-28T07:11:14.188Z,100643.81
2022-12-28T07:16:17.413Z,100618.34
2022-12-28T07:21:21.703Z,100604.47
2022-12-28T07:26:24.826Z,100592.34
2022-12-28T07:31:28.740Z,100583.66
2022-12-28T07:36:32.389Z,100570.84
2022-12-28T07:41:36.117Z,100565.75
2022-12-28T07:46:39.352Z,100568.34
2022-12-28T07:51:41.384Z,100564.13
2022-12-28T08:01:41.763Z,100551.34
2022-12-28T08:06:45.499Z,100560.81
2022-12-28T08:11:46.954Z,100553.97
2022-12-28T08:16:47.709Z,100535.97
2022-12-28T08:21:49.896Z,100549.78
2022-12-28T08:26:50.918Z,100542.13
2022-12-28T08:31:51.742Z,100531.78
2022-12-28T08:36:53.933Z,100521.53
2022-12-28T08:41:54.607Z,100501.75
2022-12-28T08:46:56.193Z,100499.22
2022-12-28T08:51:59.168Z,100507.81
2022-12-28T08:56:59.820Z,100500.09
2022-12-28T09:02:00.580Z,100501.88
2022-12-28T09:07:02.606Z,100488.97
2022-12-28T09:12:03.275Z,100481.19
2022-12-28T09:17:03.997Z,100465.66
2022-12-28T09:22:06.139Z,100461.38
2022-12-28T09:27:06.820Z,100450.09
2022-12-28T09:32:07.491Z,100450.09
2022-12-28T09:37:09.544Z,100449.19
2022-12-28T09:42:18.444Z,100443.13
2022-12-28T09:47:25.928Z,100443.09
2022-12-28T09:52:31.205Z,100447.38
2022-12-28T09:57:38.501Z,100443.88
2022-12-28T10:02:41.455Z,100440.50
2022-12-28T10:07:43.552Z,100417.16
2022-12-28T10:12:45.302Z,100408.47
2022-12-28T10:17:46.695Z,100403.28
2022-12-28T10:22:51.928Z,100402.38
2022-12-28T10:27:52.937Z,100395.53
2022-12-28T10:33:02.149Z,100387.66
2022-12-28T10:38:07.497Z,100379.78
2022-12-28T10:43:19.318Z,100370.28
2022-12-28T10:48:23.790Z,100361.56
2022-12-28T10:53:29.342Z,100348.38
2022-12-28T10:58:31.772Z,100362.25
2022-12-28T11:03:36.871Z,100346.59
2022-12-28T11:08:39.696Z,100346.69
2022-12-28T11:13:41.175Z,100334.47
2022-12-28T11:18:42.679Z,100329.25
2022-12-28T11:23:45.402Z,100314.47
2022-12-28T11:28:49.344Z,100298.72
2022-12-28T11:33:56.846Z,100286.41
2022-12-28T11:38:59.366Z,100291.53
2022-12-28T11:44:01.590Z,100286.22
2022-12-28T11:49:04.411Z,100279.13
2022-12-28T11:54:39.563Z,100280.81
2022-12-28T11:59:40.258Z,100287.00
2022-12-28T12:04:43.343Z,100273.25
2022-12-28T12:09:47.019Z,100278.59
2022-12-28T12:14:50.769Z,100263.91
2022-12-28T12:19:55.286Z,100261.16
2022-12-28T12:25:03.246Z,100257.75
2022-12-28T12:30:07.588Z,100250.09
2022-12-28T12:35:13.367Z,100254.47
2022-12-28T12:40:32.566Z,100246.84
2022-12-28T12:45:41.997Z,100245.03
2022-12-28T12:50:57.667Z,100242.47
2022-12-28T12:56:07.933Z,100246.78
2022-12-28T13:01:26.014Z,100244.19
2022-12-28T13:06:30.788Z,100251.09
2022-12-28T13:11:36.515Z,100245.09
2022-12-28T13:16:37.571Z,100233.00
2022-12-28T13:21:42.483Z,100239.03
2022-12-28T13:26:44.541Z,100238.19
2022-12-28T13:31:49.724Z,100219.03
2022-12-28T13:36:53.758Z,100218.97
2022-12-28T13:41:59.023Z,100224.16
2022-12-28T13:47:04.959Z,100229.34
2022-12-28T13:52:10.264Z,100223.22
2022-12-28T13:57:45.384Z,100221.31
2022-12-28T14:02:36.557Z,100218.59
2022-12-28T14:07:38.066Z,100223.78
2022-12-28T14:12:40.429Z,100218.56
2022-12-28T14:17:42.003Z,100225.44
2022-12-28T14:22:43.019Z,100225.31
2022-12-28T14:27:56.992Z,100231.97
2022-12-28T14:33:07.097Z,100220.94
2022-12-28T14:38:19.228Z,100224.44
2022-12-28T14:43:25.607Z,100219.25
2022-12-28T14:48:34.631Z,100230.63
2022-12-28T14:53:35.397Z,100227.22
2022-12-28T14:58:50.792Z,100223.81
2022-12-28T15:03:53.839Z,100229.84
2022-12-28T15:08:56.251Z,100224.19
2022-12-28T15:13:59.175Z,100223.34
2022-12-28T15:18:59.839Z,100218.25
2022-12-28T15:24:01.619Z,100216.69
2022-12-28T15:29:06.447Z,100225.56
2022-12-28T15:34:07.115Z,100223.06
2022-12-28T15:39:07.789Z,100217.91
2022-12-28T15:44:09.837Z,100217.06
2022-12-28T15:49:13.006Z,100218.81
2022-12-28T15:54:14.394Z,100216.25
2022-12-28T15:59:16.427Z,100214.56
2022-12-28T16:04:17.161Z,100213.75
2022-12-28T16:09:17.868Z,100209.41
2022-12-28T16:14:19.984Z,100205.97
2022-12-28T16:19:21.070Z,100192.16
2022-12-28T16:24:22.108Z,100194.69
2022-12-28T16:29:26.380Z,100200.84
2022-12-28T16:34:28.183Z,100192.28
2022-12-28T16:39:30.509Z,100188.03
2022-12-28T16:44:33.419Z,100188.09
2022-12-28T16:49:34.410Z,100186.28
2022-12-28T16:54:35.359Z,100180.31
2022-12-28T16:59:37.373Z,100176.91
2022-12-28T17:04:38.052Z,100188.19
2022-12-28T17:09:41.976Z,100183.00
2022-12-28T17:14:47.483Z,100169.22
2022-12-28T17:19:48.152Z,100177.75
2022-12-28T17:24:48.880Z,100176.88
2022-12-28T17:29:51.011Z,100174.22
2022-12-28T17:34:51.807Z,100172.56
2022-12-28T17:39:52.540Z,100158.72
2022-12-28T17:44:54.658Z,100155.28
2022-12-28T17:49:55.470Z,100157.88
2022-12-28T17:54:56.273Z,100162.06
2022-12-28T17:59:58.648Z,100156.53
2022-12-28T18:04:59.355Z,100158.19
2022-12-28T18:10:00.084Z,100151.28
2022-12-28T18:15:02.175Z,100144.28
2022-12-28T18:20:02.946Z,100147.91
2022-12-28T18:25:03.812Z,100143.63
2022-12-28T18:30:06.783Z,100139.31
2022-12-28T18:35:08.919Z,100140.13
2022-12-28T18:40:11.206Z,100137.63
2022-12-28T18:45:13.558Z,100138.50
2022-12-28T18:50:15.624Z,100138.66
2022-12-28T18:55:18.923Z,100139.41
2022-12-28T19:00:21.164Z,100140.22
2022-12-28T19:05:21.917Z,100146.19
2022-12-28T19:10:22.668Z,100135.75
2022-12-28T19:15:24.734Z,100127.03
2022-12-28T19:20:25.836Z,100114.91
2022-12-28T19:25:26.554Z,100104.41
2022-12-28T19:30:28.627Z,100088.94
2022-12-28T19:35:29.410Z,100082.06
2022-12-28T19:40:30.164Z,100075.97
2022-12-28T19:45:32.395Z,100071.56
2022-12-28T19:50:33.116Z,100068.38
2022-12-28T19:55:34.480Z,100071.81
2022-12-28T20:00:37.366Z,100066.75
2022-12-28T20:05:38.083Z,100062.44
2022-12-28T20:10:38.819Z,100056.31
2022-12-28T20:15:43.532Z,100049.41
2022-12-28T20:21:17.441Z,100054.66
2022-12-28T20:26:05.212Z,100039.13
2022-12-28T20:31:08.743Z,100038.28
2022-12-28T20:36:12.788Z,100038.28
2022-12-28T20:41:31.907Z,100028.84
2022-12-28T20:46:34.706Z,100023.50
2022-12-28T20:51:35.706Z,100022.72
2022-12-28T20:56:38.566Z,100027.81
2022-12-28T21:01:41.814Z,100021.78
2022-12-28T21:06:42.605Z,100020.13
2022-12-28T21:11:43.332Z,100002.94
2022-12-28T21:16:45.404Z,100006.28
2022-12-28T21:21:48.379Z,100001.22
2022-12-28T21:26:49.188Z,99982.25
2022-12-28T21:31:51.681Z,99974.34
2022-12-28T21:37:17.623Z,99971.06
2022-12-28T21:42:18.413Z,99960.56
2022-12-28T21:47:20.612Z,99947.78
2022-12-28T21:52:21.511Z,99945.03
2022-12-28T21:57:22.254Z,99935.63
2022-12-28T22:02:42.188Z,99925.25
2022-12-28T22:07:43.045Z,99918.34
2022-12-28T22:12:43.786Z,99904.63
2022-12-28T22:17:46.377Z,99905.44
2022-12-28T22:22:47.064Z,99884.66
2022-12-28T22:27:47.749Z,99877.72
2022-12-28T22:32:49.760Z,99869.13
2022-12-28T22:37:50.520Z,99850.84
2022-12-28T22:42:51.667Z,99850.03
2022-12-28T22:47:59.214Z,99849.16
2022-12-28T22:52:59.923Z,99847.22
2022-12-28T22:58:00.590Z,99842.13
2022-12-28T23:03:02.679Z,99824.59
2022-12-28T23:08:03.422Z,99830.78
2022-12-28T23:13:04.540Z,99827.47
2022-12-28T23:18:20.601Z,99807.50
2022-12-28T23:23:38.718Z,99791.16
2022-12-28T23:28:39.372Z,99781.38
2022-12-28T23:33:41.398Z,99781.31
2022-12-28T23:38:42.096Z,99784.84
2022-12-28T23:43:42.806Z,99777.22
2022-12-28T23:48:44.793Z,99772.03
2022-12-28T23:53:45.709Z,99763.44
2022-12-28T23:58:46.420Z,99769.41
